Time;durP1;ratioP1;P1;durP2;ratioP2;P2;SDS_P1;SDS_P2;PMS_P1;PMS_P2;Temp;Humidity;BMP_temperature;BMP_pressure;BME280_temperature;BME280_humidity;BME280_pressure;Samples;Min_cycle;Max_cycle;Signal;HPM_P1;HPM_P2
2022/04/14 00:00:01;;;;;;;45.75;24.52;;;;;;;16.27;58.87;101950.78;4938288;28;124231;-69
2022/04/14 00:02:36;;;;;;;45.95;23.70;;;;;;;16.25;58.80;101948.19;4939680;28;124403;-69
2022/04/14 00:05:04;;;;;;;47.20;24.70;;;;;;;16.25;58.80;101952.66;4941759;28;114292;-69
2022/04/14 00:07:31;;;;;;;48.47;24.10;;;;;;;16.23;58.78;101941.19;4939440;28;114046;-69
2022/04/14 00:09:59;;;;;;;43.40;23.27;;;;;;;16.22;58.81;101940.34;4939948;28;122949;-69
2022/04/14 00:12:26;;;;;;;45.25;24.23;;;;;;;16.22;58.79;101936.78;4951706;28;123109;-69
2022/04/14 00:14:53;;;;;;;43.35;23.13;;;;;;;16.20;58.71;101933.31;4941750;28;115067;-69
2022/04/14 00:17:20;;;;;;;49.83;23.77;;;;;;;16.18;58.65;101932.53;4934233;28;114581;-69
2022/04/14 00:19:47;;;;;;;40.30;22.33;;;;;;;16.14;58.76;101940.72;4936841;28;124039;-69
2022/04/14 00:22:15;;;;;;;45.88;24.08;;;;;;;16.11;58.77;101930.19;4934219;28;124619;-68
2022/04/14 00:24:42;;;;;;;42.53;23.60;;;;;;;16.09;58.79;101924.06;4953691;28;114265;-67
2022/04/14 00:27:09;;;;;;;48.38;23.92;;;;;;;16.08;58.79;101925.00;4947338;28;113956;-68
2022/04/14 00:29:37;;;;;;;42.22;22.33;;;;;;;16.05;58.75;101919.81;4943020;28;123299;-67
2022/04/14 00:32:04;;;;;;;41.53;23.33;;;;;;;16.03;58.72;101927.06;4939969;28;124619;-68
2022/04/14 00:34:32;;;;;;;41.78;22.38;;;;;;;16.01;58.78;101918.25;4940986;28;114079;-68
2022/04/14 00:36:59;;;;;;;44.63;24.20;;;;;;;15.98;58.75;101913.06;4941365;28;114454;-67
2022/04/14 00:39:27;;;;;;;44.13;23.00;;;;;;;15.96;58.90;101914.94;4940036;28;123951;-67
2022/04/14 00:41:54;;;;;;;42.42;22.58;;;;;;;15.94;58.72;101906.13;4938997;28;123795;-67
2022/04/14 00:44:21;;;;;;;43.60;23.27;;;;;;;15.92;58.91;101908.88;4939007;28;114280;-67
2022/04/14 00:46:48;;;;;;;44.22;23.25;;;;;;;15.92;58.67;101913.38;4937752;28;113929;-67
2022/04/14 00:49:15;;;;;;;37.78;22.15;;;;;;;15.89;58.68;101914.38;4943788;28;124328;-67
2022/04/14 00:51:42;;;;;;;41.92;22.83;;;;;;;15.88;58.61;101911.75;4934398;28;124670;-66
2022/04/14 00:54:10;;;;;;;42.00;22.35;;;;;;;15.86;58.69;101913.66;4942451;28;114098;-66
2022/04/14 00:56:37;;;;;;;40.70;21.48;;;;;;;15.85;58.67;101911.94;4933451;28;114206;-66
2022/04/14 00:59:04;;;;;;;40.83;22.75;;;;;;;15.81;58.84;101916.56;4939211;28;123866;-67
2022/04/14 01:01:31;;;;;;;40.80;21.92;;;;;;;15.80;58.71;101919.31;4936807;28;124722;-67
2022/04/14 01:04:00;;;;;;;42.83;23.23;;;;;;;15.79;58.81;101928.28;4950189;28;115799;-67
2022/04/14 01:06:27;;;;;;;43.22;23.73;;;;;;;15.78;58.82;101922.06;4937232;28;114861;-66
2022/04/14 01:11:50;;;;;;;42.63;21.88;;;;;;;15.74;58.84;101916.00;4937875;28;123766;-67
2022/04/14 01:14:34;;;;;;;44.00;23.55;;;;;;;15.72;58.75;101922.34;4935653;28;115231;-67
2022/04/14 01:17:10;;;;;;;47.25;23.40;;;;;;;15.70;58.88;101914.38;4941144;28;114531;-67
2022/04/14 01:19:38;;;;;;;40.85;22.67;;;;;;;15.69;58.88;101912.69;4935697;28;124662;-67
2022/04/14 01:22:35;;;;;;;43.00;23.15;;;;;;;15.68;58.98;101921.63;4941027;28;124715;-67
2022/04/14 01:25:02;;;;;;;42.92;22.13;;;;;;;15.67;58.90;101914.56;4946595;28;114212;-67
2022/04/14 01:27:29;;;;;;;41.47;21.58;;;;;;;15.67;58.93;101913.66;4939691;28;115006;-67
2022/04/14 01:30:01;;;;;;;40.85;21.63;;;;;;;15.66;59.02;101918.16;4941078;28;124135;-67
2022/04/14 01:32:28;;;;;;;37.70;20.60;;;;;;;15.66;59.07;101923.50;4945182;28;123956;-67
2022/04/14 01:34:55;;;;;;;41.25;22.60;;;;;;;15.64;58.98;101919.19;4940201;28;114133;-67
2022/04/14 01:37:22;;;;;;;40.35;21.73;;;;;;;15.61;59.14;101920.19;4939134;28;114735;-67
2022/04/14 01:39:50;;;;;;;42.58;22.48;;;;;;;15.61;58.63;101917.50;4942164;28;123331;-67
2022/04/14 01:42:17;;;;;;;41.78;21.40;;;;;;;15.60;59.05;101913.13;4937107;28;123693;-67
2022/04/14 01:44:44;;;;;;;42.75;22.33;;;;;;;15.59;59.13;101916.72;4937693;28;114542;-67
2022/04/14 01:47:11;;;;;;;43.42;22.67;;;;;;;15.57;59.21;101914.13;4937175;28;114611;-67
2022/04/14 01:49:38;;;;;;;44.45;22.92;;;;;;;15.56;59.27;101911.56;4933033;28;124102;-67
2022/04/14 01:52:06;;;;;;;41.38;21.65;;;;;;;15.56;59.15;101911.56;4928690;28;123863;-67
2022/04/14 01:54:33;;;;;;;41.60;21.15;;;;;;;15.56;59.23;101914.22;4957147;28;114157;-67
2022/04/14 01:57:00;;;;;;;42.78;22.33;;;;;;;15.56;59.31;101916.88;4942089;28;114901;-67
2022/04/14 01:59:27;;;;;;;42.83;21.67;;;;;;;15.56;59.17;101924.91;4943619;28;124063;-67
2022/04/14 02:01:54;;;;;;;44.78;23.70;;;;;;;15.55;59.32;101920.50;4934831;28;124608;-67
2022/04/14 02:04:21;;;;;;;43.40;23.08;;;;;;;15.55;59.38;101925.81;4939329;28;114095;-67
2022/04/14 02:06:50;;;;;;;45.60;22.85;;;;;;;15.54;59.46;101918.78;4944591;28;114186;-67
2022/04/14 02:09:17;;;;;;;43.15;22.58;;;;;;;15.53;59.53;101917.03;4951182;28;123392;-67
2022/04/14 02:11:44;;;;;;;40.92;22.42;;;;;;;15.53;59.43;101928.56;4940225;28;123923;-67
2022/04/14 02:14:11;;;;;;;40.22;22.27;;;;;;;15.52;59.47;101926.84;4943449;28;114274;-67
2022/04/14 02:16:38;;;;;;;40.28;21.58;;;;;;;15.52;59.47;101920.63;4937667;28;114651;-68
2022/04/14 02:19:06;;;;;;;45.85;22.95;;;;;;;15.52;59.63;101925.97;4944207;28;124876;-67
2022/04/14 02:21:33;;;;;;;45.53;23.08;;;;;;;15.52;59.63;101925.97;4939757;28;123817;-67
2022/04/14 02:24:00;;;;;;;39.13;21.15;;;;;;;15.51;59.63;101929.59;4936885;28;113988;-67
2022/04/14 02:26:28;;;;;;;48.15;23.70;;;;;;;15.50;59.74;101922.50;4953166;28;114323;-67
2022/04/14 02:28:55;;;;;;;42.47;22.45;;;;;;;15.50;59.68;101933.19;4935682;28;124496;-68
2022/04/14 02:31:22;;;;;;;46.42;23.00;;;;;;;15.49;59.70;101934.13;4939966;28;124052;-67
2022/04/14 02:33:49;;;;;;;38.78;21.80;;;;;;;15.48;59.62;101932.41;4935892;28;114689;-67
2022/04/14 02:36:17;;;;;;;40.55;21.65;;;;;;;15.46;59.64;101931.59;4941583;28;114131;-68
2022/04/14 02:38:45;;;;;;;42.35;22.23;;;;;;;15.45;59.52;101924.56;4942191;28;123521;-67
2022/04/14 02:41:12;;;;;;;40.05;22.38;;;;;;;15.43;59.69;101926.44;4958521;28;124233;-67
2022/04/14 02:43:39;;;;;;;41.88;21.90;;;;;;;15.41;59.57;101926.50;4955383;28;115057;-67
2022/04/14 02:46:06;;;;;;;42.03;22.30;;;;;;;15.41;59.58;101933.63;4940158;28;114701;-68
2022/04/14 02:48:35;;;;;;;36.83;20.60;;;;;;;15.39;59.66;101931.06;4959155;28;122996;-67
2022/04/14 02:51:02;;;;;;;38.15;21.25;;;;;;;15.38;59.53;101935.50;4939604;28;123716;-67
2022/04/14 02:53:29;;;;;;;37.38;20.73;;;;;;;15.35;59.54;101938.34;4955104;28;114331;-67
2022/04/14 02:55:56;;;;;;;40.33;20.98;;;;;;;15.33;59.54;101942.88;4941241;28;113932;-67
2022/04/14 02:58:23;;;;;;;39.28;21.20;;;;;;;15.29;59.61;101941.28;4957906;28;123598;-67
2022/04/14 03:00:51;;;;;;;36.65;20.08;;;;;;;15.27;59.60;101935.16;4945219;28;123811;-68
2022/04/14 03:03:19;;;;;;;37.38;20.48;;;;;;;15.26;59.62;101941.44;4937118;28;114044;-68
2022/04/14 03:05:46;;;;;;;40.58;21.25;;;;;;;15.25;59.61;101945.03;4957761;28;113382;-68
2022/04/14 03:08:13;;;;;;;36.58;20.27;;;;;;;15.23;59.71;101941.56;4938254;28;124611;-68
2022/04/14 03:10:41;;;;;;;40.55;21.05;;;;;;;15.22;59.81;101945.19;4940724;28;123983;-68
2022/04/14 03:13:08;;;;;;;36.58;19.83;;;;;;;15.20;59.83;101947.06;4934852;28;114098;-68
2022/04/14 03:15:35;;;;;;;37.72;20.52;;;;;;;15.18;59.83;101940.91;4942242;28;114072;-68
2022/04/14 03:18:03;;;;;;;36.28;20.15;;;;;;;15.16;59.82;101934.78;4941091;28;124199;-68
2022/04/14 03:20:30;;;;;;;42.15;21.00;;;;;;;15.15;59.91;101938.41;4957356;28;123690;-68
2022/04/14 03:22:58;;;;;;;40.78;20.60;;;;;;;15.13;59.82;101929.63;4938709;28;113019;-68
2022/04/14 03:25:26;;;;;;;38.03;19.77;;;;;;;15.13;59.88;101934.94;4960493;28;113775;-68
2022/04/14 03:27:53;;;;;;;39.45;20.30;;;;;;;15.10;59.98;101929.75;4939642;28;124897;-68
2022/04/14 03:30:21;;;;;;;36.10;19.45;;;;;;;15.08;60.09;101935.16;4942626;28;99346;-68
2022/04/14 03:32:48;;;;;;;38.75;20.13;;;;;;;15.08;60.11;101942.28;4938216;28;115549;-68
2022/04/14 03:35:16;;;;;;;33.10;18.95;;;;;;;15.07;60.06;101940.56;4940775;28;115013;-68
2022/04/14 03:37:43;;;;;;;34.35;18.70;;;;;;;15.07;60.03;101940.56;4936856;28;124165;-68
2022/04/14 03:40:11;;;;;;;44.10;19.25;;;;;;;15.06;60.09;101938.84;4943572;28;124166;-68
2022/04/14 03:42:38;;;;;;;42.33;19.58;;;;;;;15.04;59.96;101941.56;4942503;28;113187;-69
2022/04/14 03:45:06;;;;;;;34.38;19.23;;;;;;;15.03;60.03;101939.84;4939129;28;114064;-68
2022/04/14 03:47:34;;;;;;;40.75;19.67;;;;;;;15.04;60.12;101946.06;4944029;28;124109;-69
2022/04/14 03:50:02;;;;;;;35.17;19.88;;;;;;;15.01;60.03;101946.19;4936605;28;124366;-68
2022/04/14 03:52:30;;;;;;;38.00;19.33;;;;;;;14.99;60.06;101939.13;4935917;28;114642;-68
2022/04/14 03:54:58;;;;;;;36.17;18.60;;;;;;;14.95;60.12;101942.84;4938852;28;114456;-68
2022/04/14 03:57:26;;;;;;;38.10;18.52;;;;;;;14.94;60.21;101951.81;4937567;28;124023;-68
2022/04/14 03:59:53;;;;;;;35.75;18.80;;;;;;;14.92;60.10;101948.34;4941402;28;123761;-68
2022/04/14 04:02:20;;;;;;;37.85;18.90;;;;;;;14.91;60.04;101945.75;4935666;28;114375;-68
2022/04/14 04:04:47;;;;;;;33.67;17.92;;;;;;;14.90;60.20;101950.22;4942806;28;114092;-68
2022/04/14 04:07:14;;;;;;;37.90;19.27;;;;;;;14.88;60.19;101941.41;4941059;28;123847;-68
2022/04/14 04:09:42;;;;;;;37.78;18.73;;;;;;;14.87;60.25;101945.00;4935515;28;123636;-68
2022/04/14 04:12:09;;;;;;;33.08;18.15;;;;;;;14.86;60.21;101947.75;4948447;28;114472;-68
2022/04/14 04:14:36;;;;;;;33.97;18.98;;;;;;;14.84;60.53;101945.13;4953962;28;113891;-68
2022/04/14 04:17:04;;;;;;;35.05;19.13;;;;;;;14.83;60.37;101947.91;4936082;28;124077;-68
2022/04/14 04:19:32;;;;;;;34.22;18.98;;;;;;;14.81;60.34;101953.31;4942054;28;124427;-67
2022/04/14 04:21:59;;;;;;;31.05;17.25;;;;;;;14.80;60.23;101954.22;4939941;28;114588;-68
2022/04/14 04:24:26;;;;;;;33.03;17.25;;;;;;;14.78;60.21;101956.09;4943867;28;114873;-67
2022/04/14 04:26:53;;;;;;;30.33;17.48;;;;;;;14.76;60.18;101948.16;4942439;28;123892;-67
2022/04/14 04:29:20;;;;;;;29.00;17.42;;;;;;;14.74;60.24;101954.50;4937684;28;123833;-67
2022/04/14 04:31:48;;;;;;;28.02;17.13;;;;;;;14.71;60.25;101955.53;4938964;28;114210;-68
2022/04/14 04:34:15;;;;;;;31.05;17.13;;;;;;;14.68;60.32;101954.78;4948760;28;113984;-67
2022/04/14 04:36:42;;;;;;;37.80;16.25;;;;;;;14.64;60.21;101959.38;4947113;28;124375;-67
2022/04/14 04:39:10;;;;;;;31.30;16.88;;;;;;;14.62;60.31;101960.38;4942434;28;125042;-67
2022/04/14 04:41:37;;;;;;;29.00;16.98;;;;;;;14.58;60.32;101960.53;4939346;28;114289;-67
2022/04/14 04:44:05;;;;;;;26.65;16.58;;;;;;;14.55;60.33;101971.28;4947545;28;114261;-67
2022/04/14 04:46:32;;;;;;;32.60;16.33;;;;;;;14.53;60.31;101974.94;4941486;28;123768;-68
2022/04/14 04:49:00;;;;;;;31.45;16.65;;;;;;;14.50;60.40;101973.28;4939700;28;123901;-68
2022/04/14 04:51:27;;;;;;;30.00;16.55;;;;;;;14.46;60.48;101971.66;4938331;28;114577;-67
2022/04/14 04:53:55;;;;;;;28.55;15.80;;;;;;;14.46;60.50;101976.16;4939637;28;114218;-67
2022/04/14 04:56:22;;;;;;;27.48;16.80;;;;;;;14.44;60.48;101972.69;4942642;28;123966;-67
2022/04/14 04:58:49;;;;;;;31.75;17.83;;;;;;;14.43;60.43;101977.16;4954431;28;122971;-69
2022/04/14 05:01:16;;;;;;;33.95;17.58;;;;;;;14.41;60.51;101979.88;4937840;28;114266;-69
2022/04/14 05:03:43;;;;;;;35.97;17.27;;;;;;;14.40;60.53;101978.13;4943661;28;113862;-69
2022/04/14 05:06:12;;;;;;;28.92;16.90;;;;;;;14.39;60.68;101987.06;4938385;28;123880;-69
2022/04/14 05:08:39;;;;;;;30.77;16.90;;;;;;;14.40;60.48;101979.94;4942516;28;123903;-69
2022/04/14 05:11:08;;;;;;;28.40;16.95;;;;;;;14.38;60.39;101989.81;4936260;28;115979;-69
2022/04/14 05:13:35;;;;;;;41.17;17.48;;;;;;;14.36;60.47;101997.00;4942820;28;115366;-68
2022/04/14 05:16:04;;;;;;;29.70;17.45;;;;;;;14.32;60.46;101995.41;4935599;28;125044;-67
2022/04/14 05:18:33;;;;;;;31.15;17.65;;;;;;;14.30;60.51;101991.94;4936395;28;124891;-68
2022/04/14 05:21:00;;;;;;;28.67;16.25;;;;;;;14.28;60.64;101993.78;4949020;28;114301;-67
2022/04/14 05:23:27;;;;;;;27.35;16.45;;;;;;;14.26;60.62;101990.31;4932564;28;114050;-68
2022/04/14 05:25:56;;;;;;;30.75;18.25;;;;;;;14.25;60.74;101993.94;4940285;28;123883;-67
2022/04/14 05:28:23;;;;;;;28.25;16.77;;;;;;;14.23;60.70;101995.78;4956373;28;123845;-67
2022/04/14 05:30:50;;;;;;;29.05;16.90;;;;;;;14.21;60.76;101999.38;4935643;28;114300;-68
2022/04/14 05:33:18;;;;;;;30.13;17.25;;;;;;;14.21;60.61;101999.38;4936525;28;114591;-68
2022/04/14 05:35:45;;;;;;;30.27;17.48;;;;;;;14.18;60.58;102004.84;4935569;28;124038;-68
2022/04/14 05:38:12;;;;;;;28.83;16.42;;;;;;;14.15;60.60;102004.97;4939381;28;124232;-68
2022/04/14 05:40:41;;;;;;;27.92;16.73;;;;;;;14.15;60.62;101998.78;4936945;28;114725;-68
2022/04/14 05:43:15;;;;;;;29.58;17.33;;;;;;;14.11;60.60;102003.38;4937463;28;113876;-68
2022/04/14 05:45:44;;;;;;;28.75;16.92;;;;;;;14.11;60.86;101998.03;4940626;28;123955;-68
2022/04/14 05:48:14;;;;;;;31.58;17.00;;;;;;;14.11;60.81;102005.13;4932882;28;123748;-68
2022/04/14 05:50:43;;;;;;;32.90;18.02;;;;;;;14.10;60.49;102016.75;4945207;28;114427;-68
2022/04/14 05:53:11;;;;;;;28.40;17.85;;;;;;;14.07;60.64;102017.75;4943353;28;113896;-68
2022/04/14 05:55:40;;;;;;;29.60;16.67;;;;;;;14.05;60.70;102024.91;4934706;28;123968;-68
2022/04/14 05:58:08;;;;;;;28.20;17.23;;;;;;;14.04;60.63;102023.19;4939625;28;124074;-68
2022/04/14 06:00:36;;;;;;;32.83;17.55;;;;;;;14.04;60.67;102023.19;4935883;28;115287;-67
2022/04/14 06:03:05;;;;;;;30.10;17.00;;;;;;;14.05;60.97;102024.91;4940652;28;115199;-68
2022/04/14 06:05:33;;;;;;;30.33;17.35;;;;;;;14.04;60.91;102028.50;4934124;28;124086;-68
2022/04/14 06:08:01;;;;;;;31.77;18.35;;;;;;;14.04;60.98;102027.66;4942889;28;123227;-68
2022/04/14 06:10:28;;;;;;;32.53;17.23;;;;;;;14.05;61.13;102035.56;4941874;28;113243;-68
2022/04/14 06:12:56;;;;;;;34.88;18.38;;;;;;;14.08;60.98;102034.59;4937691;28;114156;-68
2022/04/14 06:15:23;;;;;;;30.65;18.13;;;;;;;14.10;61.22;102030.91;4936319;28;124398;-67
2022/04/14 06:17:50;;;;;;;32.53;19.27;;;;;;;14.14;61.07;102029.84;4941621;28;123690;-67
2022/04/14 06:20:18;;;;;;;35.22;18.42;;;;;;;14.18;60.96;102030.59;4935116;28;113591;-67
2022/04/14 06:22:45;;;;;;;34.13;18.90;;;;;;;14.25;61.24;102041.88;4938237;28;114011;-67
2022/04/14 06:25:14;;;;;;;32.13;18.98;;;;;;;14.29;61.49;102032.84;4933781;28;124665;-67
2022/04/14 06:27:42;;;;;;;35.25;19.70;;;;;;;14.36;61.47;102023.66;4939499;28;122917;-67
2022/04/14 06:30:11;;;;;;;33.03;18.75;;;;;;;14.44;61.58;102031.31;4938575;28;114618;-68
2022/04/14 06:32:39;;;;;;;33.35;19.42;;;;;;;14.49;61.46;102032.88;4942438;28;114829;-67
2022/04/14 06:35:15;;;;;;;35.72;20.33;;;;;;;14.56;61.61;102034.34;4932175;28;124634;-67
2022/04/14 06:37:42;;;;;;;33.50;19.58;;;;;;;14.64;61.52;102038.53;4932172;28;123777;-67
2022/04/14 06:40:23;;;;;;;36.60;20.45;;;;;;;14.70;61.54;102035.56;4934949;28;114120;-67
2022/04/14 06:43:02;;;;;;;34.95;19.85;;;;;;;14.74;61.56;102039.84;4957820;28;115717;-67
2022/04/14 06:45:30;;;;;;;35.53;19.95;;;;;;;14.81;61.69;102035.97;4950774;28;123242;-67
2022/04/14 06:47:59;;;;;;;36.45;21.35;;;;;;;14.91;61.68;102042.63;4939098;28;125051;-67
2022/04/14 06:50:27;;;;;;;38.38;21.08;;;;;;;15.04;61.98;102037.63;4947617;28;115323;-67
2022/04/14 06:52:54;;;;;;;39.53;20.90;;;;;;;15.18;62.04;102039.66;4946675;28;113852;-67
2022/04/14 06:55:22;;;;;;;40.03;22.00;;;;;;;15.30;61.94;102038.25;4946924;28;123153;-67
2022/04/14 06:57:50;;;;;;;38.03;21.08;;;;;;;15.45;62.14;102047.38;4936508;28;124508;-67
2022/04/14 07:00:18;;;;;;;38.90;21.80;;;;;;;15.58;61.99;102037.84;4957044;28;113421;-67
2022/04/14 07:03:04;;;;;;;40.22;21.73;;;;;;;15.73;61.95;102042.50;4932247;28;114066;-66
2022/04/14 07:05:43;;;;;;;36.42;21.13;;;;;;;15.88;61.93;102040.00;4951963;28;123275;-66
2022/04/14 07:08:11;;;;;;;35.53;20.60;;;;;;;16.01;61.90;102038.50;4946523;28;123922;-66
2022/04/14 07:10:38;;;;;;;37.22;21.25;;;;;;;16.18;61.86;102042.13;4948446;28;114188;-66
2022/04/14 07:13:10;;;;;;;34.08;20.38;;;;;;;16.35;61.85;102044.84;4935064;28;114323;-66
2022/04/14 07:15:37;;;;;;;37.13;20.75;;;;;;;16.48;61.56;102045.06;4953141;28;122970;-67
2022/04/14 07:18:05;;;;;;;33.72;20.42;;;;;;;16.64;61.55;102039.81;4936743;28;122867;-67
2022/04/14 07:20:32;;;;;;;31.17;19.02;;;;;;;16.78;61.49;102037.28;4937497;28;114315;-67
2022/04/14 07:23:02;;;;;;;29.15;19.00;;;;;;;16.92;61.39;102033.94;4952227;28;113674;-67
2022/04/14 07:25:33;;;;;;;28.60;18.60;;;;;;;17.09;61.09;102036.56;4935271;28;123927;-68
2022/04/14 07:28:01;;;;;;;29.98;18.70;;;;;;;17.24;60.91;102029.53;4947174;28;124041;-67
2022/04/14 07:30:28;;;;;;;21.70;14.80;;;;;;;17.39;60.72;102043.03;4935775;28;114335;-67
2022/04/14 07:32:55;;;;;;;21.63;13.15;;;;;;;17.49;60.42;102033.53;4962673;28;113952;-67
2022/04/14 07:35:25;;;;;;;20.25;13.52;;;;;;;17.59;60.14;102029.38;4948195;28;123894;-71
2022/04/14 07:37:52;;;;;;;19.77;12.80;;;;;;;17.73;60.13;102041.19;4948435;28;122741;-70
2022/04/14 07:40:20;;;;;;;21.08;12.90;;;;;;;17.84;59.71;102044.13;4938188;28;115075;-70
2022/04/14 07:42:49;;;;;;;20.65;11.85;;;;;;;17.91;59.41;102045.50;4948399;28;114237;-71
2022/04/14 07:45:18;;;;;;;17.23;11.32;;;;;;;17.98;58.90;102046.88;4941930;28;125799;-67
2022/04/14 07:47:45;;;;;;;17.95;11.32;;;;;;;18.04;58.73;102051.91;4957195;28;122687;-67
2022/04/14 07:50:15;;;;;;;16.55;11.25;;;;;;;18.15;58.83;102058.47;4955590;28;114547;-68
2022/04/14 07:52:56;;;;;;;19.30;11.32;;;;;;;18.26;58.85;102050.66;4938484;28;113874;-68
2022/04/14 07:55:27;;;;;;;18.50;10.75;;;;;;;18.41;58.31;102060.50;4937190;28;124018;-68
2022/04/14 07:57:57;;;;;;;15.65;10.60;;;;;;;18.52;57.90;102061.69;4949086;28;122698;-68
2022/04/14 08:00:26;;;;;;;18.88;10.98;;;;;;;18.61;57.90;102061.13;4945384;28;114544;-68
2022/04/14 08:02:56;;;;;;;17.38;10.95;;;;;;;18.67;57.44;102066.16;4931704;28;113960;-68
2022/04/14 08:05:33;;;;;;;18.60;10.05;;;;;;;18.71;57.20;102067.69;4931502;28;124112;-69
2022/04/14 08:08:06;;;;;;;15.05;10.48;;;;;;;18.76;56.84;102064.72;4930871;28;123569;-68
2022/04/14 08:10:34;;;;;;;17.83;10.82;;;;;;;18.81;56.81;102058.16;4948613;28;113311;-68
2022/04/14 08:13:02;;;;;;;17.35;11.35;;;;;;;18.84;56.88;102057.97;4947078;28;114070;-68
2022/04/14 08:15:31;;;;;;;16.95;11.82;;;;;;;18.94;57.26;102068.16;4947721;28;124650;-68
2022/04/14 08:17:58;;;;;;;17.70;11.85;;;;;;;19.08;57.21;102070.88;4952047;28;123071;-68
2022/04/14 08:20:26;;;;;;;16.80;10.68;;;;;;;19.21;56.97;102055.72;4931297;28;113450;-66
2022/04/14 08:22:56;;;;;;;14.98;10.10;;;;;;;19.37;56.65;102060.13;4930743;28;114176;-67
2022/04/14 08:25:25;;;;;;;15.32;10.45;;;;;;;19.50;56.40;102050.34;4947862;28;124673;-66
2022/04/14 08:27:53;;;;;;;13.05;9.35;;;;;;;19.62;56.15;102054.91;4931808;28;123056;-66
2022/04/14 08:30:22;;;;;;;13.45;8.50;;;;;;;19.74;55.87;102052.44;4928509;28;115954;-66
2022/04/14 08:32:51;;;;;;;13.13;9.00;;;;;;;19.80;55.40;102046.69;4929967;28;115603;-66
2022/04/14 08:35:20;;;;;;;13.77;9.20;;;;;;;19.87;55.10;102053.34;4938447;28;123681;-66
2022/04/14 08:37:48;;;;;;;15.93;9.18;;;;;;;19.93;54.81;102052.97;4951955;28;123242;-67
2022/04/14 08:40:21;;;;;;;16.00;9.63;;;;;;;19.98;54.75;102045.44;4949993;28;114284;-67
2022/04/14 08:43:00;;;;;;;13.70;9.52;;;;;;;20.08;54.85;102060.97;4952017;28;113049;-66
2022/04/14 08:45:33;;;;;;;11.55;8.40;;;;;;;20.17;54.33;102055.00;4966502;28;124663;-66
2022/04/14 08:48:02;;;;;;;13.43;8.70;;;;;;;20.23;54.18;102060.00;4951732;28;123285;-66
2022/04/14 08:50:31;;;;;;;9.57;7.57;;;;;;;20.26;53.88;102059.78;4954379;28;113465;-66
2022/04/14 08:52:59;;;;;;;12.43;8.95;;;;;;;20.29;53.63;102059.56;4945485;28;114054;-67
2022/04/14 08:55:28;;;;;;;11.73;8.70;;;;;;;20.31;53.81;102046.88;4947694;28;122811;-66
2022/04/14 08:57:56;;;;;;;14.02;9.73;;;;;;;20.36;53.84;102049.25;4931820;28;124086;-67
2022/04/14 09:00:23;;;;;;;14.35;8.82;;;;;;;20.45;53.87;102047.78;4947546;28;113241;-67
2022/04/14 09:02:53;;;;;;;11.95;8.07;;;;;;;20.53;53.62;102050.81;4958011;28;114376;-66
2022/04/14 09:05:20;;;;;;;11.20;7.70;;;;;;;20.64;53.52;102048.28;4949390;28;124186;-67
2022/04/14 09:07:51;;;;;;;13.32;8.38;;;;;;;20.75;53.20;102050.22;4964324;28;123914;-66
2022/04/14 09:10:19;;;;;;;10.98;8.10;;;;;;;20.85;53.06;102050.44;4966786;28;113373;-66
2022/04/14 09:12:51;;;;;;;9.75;6.75;;;;;;;20.93;52.66;102053.50;4966826;28;114380;-66
2022/04/14 09:15:20;;;;;;;9.90;6.90;;;;;;;21.00;52.31;102049.38;4950546;28;123565;-66
2022/04/14 09:17:47;;;;;;;13.00;7.80;;;;;;;21.07;52.09;102050.69;4949367;28;123998;-66
2022/04/14 09:20:37;;;;;;;10.70;6.85;;;;;;;21.13;52.03;102039.47;4948299;28;115424;-66
2022/04/14 09:23:18;;;;;;;10.55;6.35;;;;;;;21.22;52.03;102037.09;4951382;28;114780;-66
2022/04/14 09:25:50;;;;;;;9.52;6.10;;;;;;;21.34;51.58;102042.50;4950692;28;122896;-66
2022/04/14 09:28:20;;;;;;;8.57;6.22;;;;;;;21.42;51.13;102044.63;4950498;28;122639;-66
2022/04/14 09:31:04;;;;;;;8.65;5.70;;;;;;;21.47;50.74;102037.09;4966630;28;113138;-66
2022/04/14 09:33:34;;;;;;;6.90;5.30;;;;;;;21.54;50.48;102030.28;4951089;28;114690;-66
2022/04/14 09:36:08;;;;;;;7.93;4.47;;;;;;;21.61;50.34;102027.16;4950556;28;123061;-66
2022/04/14 09:38:53;;;;;;;5.60;3.78;;;;;;;21.67;50.00;102032.09;4964408;28;124162;-69
2022/04/14 09:41:38;;;;;;;5.28;3.20;;;;;;;21.70;49.61;102038.13;4966249;28;113320;-67
2022/04/14 09:44:06;;;;;;;5.20;3.13;;;;;;;21.71;49.43;102033.59;4951621;28;114015;-66
2022/04/14 09:46:35;;;;;;;5.07;3.33;;;;;;;21.72;48.95;102029.94;4965304;28;122885;-67
2022/04/14 09:49:09;;;;;;;6.97;3.67;;;;;;;21.72;48.89;102024.53;4949134;28;124212;-66
2022/04/14 09:51:38;;;;;;;5.77;3.30;;;;;;;21.76;48.84;102023.34;4946731;28;114302;-66
2022/04/14 09:54:13;;;;;;;4.68;2.80;;;;;;;21.84;48.59;102018.22;4952027;28;113159;-66
2022/04/14 09:56:52;;;;;;;5.20;3.55;;;;;;;21.94;48.63;102019.28;4947481;28;123070;-66
2022/04/14 09:59:21;;;;;;;5.97;3.53;;;;;;;22.02;48.30;102015.13;4947498;28;123673;-67
2022/04/14 10:02:13;;;;;;;10.05;3.20;;;;;;;22.11;48.11;102025.22;4929239;28;115146;-66
2022/04/14 10:04:43;;;;;;;5.00;3.60;;;;;;;22.20;48.14;102013.72;4948021;28;114390;-66
2022/04/14 10:07:12;;;;;;;6.18;3.40;;;;;;;22.27;47.68;102012.31;4944298;28;124334;-67
2022/04/14 10:09:45;;;;;;;6.30;3.63;;;;;;;22.34;47.68;102012.75;4931472;28;122773;-66
2022/04/14 10:12:15;;;;;;;6.60;3.95;;;;;;;22.40;47.06;102008.72;4932051;28;115055;-66
2022/04/14 10:15:04;;;;;;;5.68;3.40;;;;;;;22.45;46.92;102006.50;4953613;28;114698;-66
2022/04/14 10:17:37;;;;;;;6.15;3.70;;;;;;;22.45;46.85;102003.78;4956052;28;123147;-67
2022/04/14 10:20:06;;;;;;;6.43;3.55;;;;;;;22.49;46.51;102007.97;4928415;28;123889;-66
2022/04/14 10:22:35;;;;;;;5.70;3.58;;;;;;;22.53;46.56;102009.47;4929944;28;114863;-66
2022/04/14 10:25:03;;;;;;;5.43;3.47;;;;;;;22.61;46.73;102012.44;4933688;28;114684;-66
2022/04/14 10:27:33;;;;;;;4.72;2.60;;;;;;;22.71;46.16;102018.81;4938856;28;123137;-66
2022/04/14 10:30:01;;;;;;;4.68;2.85;;;;;;;22.79;45.78;102025.47;4952579;28;124220;-66
2022/04/14 10:32:30;;;;;;;4.35;2.72;;;;;;;22.87;45.60;102028.47;4963093;28;113203;-66
2022/04/14 10:34:59;;;;;;;4.15;2.40;;;;;;;22.95;45.07;102028.69;4952023;28;113959;-67
2022/04/14 10:37:35;;;;;;;3.05;1.95;;;;;;;22.98;44.65;102031.19;4928823;28;123807;-66
2022/04/14 10:40:02;;;;;;;4.70;2.28;;;;;;;23.03;44.65;102038.91;4939251;28;124235;-67
2022/04/14 10:42:31;;;;;;;4.30;2.40;;;;;;;23.06;44.42;102039.56;4939809;28;114304;-66
2022/04/14 10:44:58;;;;;;;4.65;2.70;;;;;;;23.09;44.40;102033.91;4947491;28;114226;-66
2022/04/14 10:47:32;;;;;;;3.65;1.92;;;;;;;23.15;44.10;102037.09;4950250;28;123764;-66
2022/04/14 10:50:00;;;;;;;3.57;1.93;;;;;;;23.21;44.16;102031.22;4934331;28;124508;-66
2022/04/14 10:52:33;;;;;;;3.70;1.85;;;;;;;23.27;43.93;102036.13;4934204;28;114282;-66
2022/04/14 10:55:01;;;;;;;2.90;1.65;;;;;;;23.31;43.57;102022.22;4936701;28;113379;-66
2022/04/14 10:57:39;;;;;;;2.65;1.70;;;;;;;23.36;43.30;102032.69;4931102;28;123977;-66
2022/04/14 11:00:18;;;;;;;3.25;1.60;;;;;;;23.39;43.08;102039.69;4931760;28;123037;-66
2022/04/14 11:03:05;;;;;;;3.15;1.60;;;;;;;23.40;43.25;102026.03;4951249;28;114249;-66
2022/04/14 11:05:45;;;;;;;2.67;1.30;;;;;;;23.47;42.94;102024.56;4929477;28;115466;-66
2022/04/14 11:08:25;;;;;;;2.55;1.33;;;;;;;23.54;42.43;102026.78;4957267;28;124866;-66
2022/04/14 11:11:14;;;;;;;2.00;1.15;;;;;;;23.57;42.46;102027.38;4949304;28;123318;-66
2022/04/14 11:13:50;;;;;;;2.75;1.42;;;;;;;23.63;41.89;102031.44;4933719;28;113275;-66
2022/04/14 11:16:44;;;;;;;2.65;1.50;;;;;;;23.66;42.39;102025.78;4935703;28;114307;-67